Martinsville, Missouri
Current Conditions -  °F | °C
As of 9:53 PM on Wednesday 22 Oct 2014 (Local Time) from KLWD Reporting Station
Few Clouds Few Clouds  
Wind Chill: 56°   Ceiling: Unl
Heat Index: 56°   Visibility: 10mi
Dew Point: 46°   Wind: 10mph
Humidity: 69%   Direction: 150°SSE
Pressure: 30.13"   Gusts: NA
Location:  40.34°N, 94.16°W
Report Text: KLWD 230253Z AUTO 15009KT 10SM FEW075 13/08 A3013 RMK AO2 SLP204 T01330078 53002
Loading
Personal Weather Stations






























Interactive Weather Map
Tropical Storm Tracking
New forecast layout! Learn more

10-Day Weather Forecast

Advertisements
Track Severe Weather on mobile